Time;durP1;ratioP1;P1;durP2;ratioP2;P2;SDS_P1;SDS_P2;PMS_P1;PMS_P2;Temp;Humidity;BMP_temperature;BMP_pressure;BME280_temperature;BME280_humidity;BME280_pressure;Samples;Min_cycle;Max_cycle;Signal;HPM_P1;HPM_P2
2022/11/01 00:01:51;;;;;;;3.00;1.88;;;;;;;11.02;100.00;99175.94;5030169;28;20037;-58
2022/11/01 00:04:18;;;;;;;5.28;1.25;;;;;;;11.01;100.00;99166.34;5033514;28;20666;-56
2022/11/01 00:06:43;;;;;;;12.32;1.33;;;;;;;10.97;100.00;99167.84;5032391;28;20021;-50
2022/11/01 00:09:09;;;;;;;8.30;1.00;;;;;;;10.94;100.00;99170.94;5032075;28;20017;-54
2022/11/01 00:11:34;;;;;;;3.03;0.22;;;;;;;10.93;100.00;99161.38;5032184;28;22263;-53
2022/11/01 00:14:00;;;;;;;3.33;0.50;;;;;;;10.91;100.00;99153.63;5034338;28;20032;-50
2022/11/01 00:16:25;;;;;;;4.78;1.45;;;;;;;10.91;100.00;99148.31;5033413;28;20025;-48
2022/11/01 00:18:50;;;;;;;4.63;1.13;;;;;;;10.89;100.00;99153.06;5035107;28;20111;-55
2022/11/01 00:21:16;;;;;;;9.30;0.73;;;;;;;10.88;100.00;99140.03;5029869;28;20393;-52
2022/11/01 00:23:42;;;;;;;4.68;0.50;;;;;;;10.83;100.00;99134.59;5025451;28;20097;-51
2022/11/01 00:26:11;;;;;;;2.63;0.28;;;;;;;10.86;100.00;99121.66;5027558;28;20117;-48
2022/11/01 00:28:42;;;;;;;6.85;0.82;;;;;;;10.82;100.00;99109.91;5069653;28;20400;-49
2022/11/01 00:31:08;;;;;;;13.57;2.83;;;;;;;10.80;100.00;99096.06;5069371;28;20540;-50
2022/11/01 00:33:35;;;;;;;5.13;1.38;;;;;;;10.76;100.00;99084.28;5066428;28;20056;-56
2022/11/01 00:36:01;;;;;;;6.28;0.85;;;;;;;10.69;100.00;99073.78;5067425;28;20035;-51
2022/11/01 00:38:27;;;;;;;2.08;0.68;;;;;;;10.67;100.00;99073.22;5068881;28;20702;-49
2022/11/01 00:40:52;;;;;;;10.95;2.42;;;;;;;10.65;100.00;99062.00;5073295;28;20024;-52
2022/11/01 00:43:17;;;;;;;7.50;0.90;;;;;;;10.62;100.00;99057.16;5067504;28;20028;-46
2022/11/01 00:45:44;;;;;;;11.15;1.40;;;;;;;10.55;100.00;99045.84;5074067;28;20036;-50
2022/11/01 00:48:09;;;;;;;5.65;1.00;;;;;;;10.52;100.00;99053.44;5068922;28;20020;-50
2022/11/01 00:50:35;;;;;;;7.95;1.40;;;;;;;10.44;100.00;99052.72;5053336;28;20540;-54
2022/11/01 00:53:00;;;;;;;10.60;0.52;;;;;;;10.38;100.00;99032.44;5071511;28;20024;-48
2022/11/01 00:55:25;;;;;;;3.30;0.55;;;;;;;10.31;100.00;99022.97;5067305;28;20133;-53
2022/11/01 00:57:51;;;;;;;7.63;1.52;;;;;;;10.28;100.00;99023.41;5073121;28;20145;-51
2022/11/01 01:00:16;;;;;;;5.85;0.50;;;;;;;10.23;100.00;99016.09;5073411;28;20028;-56
2022/11/01 01:02:42;;;;;;;2.83;0.32;;;;;;;10.20;100.00;99020.00;5077278;28;20039;-51
2022/11/01 01:05:08;;;;;;;5.07;2.17;;;;;;;10.22;100.00;99025.91;5070982;28;20032;-54
2022/11/01 01:07:34;;;;;;;4.28;0.20;;;;;;;10.25;100.00;99008.75;5075852;28;20032;-54
2022/11/01 01:09:59;;;;;;;5.72;1.58;;;;;;;10.24;100.00;99007.91;5071001;28;20081;-49
2022/11/01 01:12:25;;;;;;;3.42;0.40;;;;;;;10.23;100.00;99002.88;5071062;28;20113;-51
2022/11/01 01:14:50;;;;;;;7.82;1.45;;;;;;;10.23;100.00;98989.63;5076285;28;20041;-51
2022/11/01 01:17:16;;;;;;;6.50;0.52;;;;;;;10.23;100.00;98993.06;5069176;28;20044;-51
2022/11/01 01:19:42;;;;;;;4.60;0.80;;;;;;;10.22;100.00;98983.53;5066021;28;20020;-57
2022/11/01 01:22:07;;;;;;;8.88;3.22;;;;;;;10.20;100.00;98980.28;5067233;28;20029;-56
2022/11/01 01:24:33;;;;;;;3.47;0.30;;;;;;;10.20;100.00;98982.94;5075306;28;20528;-56
2022/11/01 01:26:58;;;;;;;8.38;0.93;;;;;;;10.21;100.00;98979.25;5071506;28;20052;-58
2022/11/01 01:29:24;;;;;;;4.50;0.75;;;;;;;10.22;100.00;98978.22;5070771;28;20437;-59
2022/11/01 01:31:50;;;;;;;11.02;1.38;;;;;;;10.23;100.00;98985.13;5068921;28;20039;-55
2022/11/01 01:34:16;;;;;;;11.60;2.65;;;;;;;10.21;100.00;98976.59;5069917;28;20036;-52
2022/11/01 01:36:42;;;;;;;7.88;1.65;;;;;;;10.23;100.00;98985.13;5074259;28;20025;-49
2022/11/01 01:39:08;;;;;;;4.53;1.33;;;;;;;10.28;100.00;99000.38;5062895;28;20031;-52
2022/11/01 01:44:49;;;;;;;2.97;0.50;;;;;;;10.43;100.00;99005.28;5055274;28;20040;-54
2022/11/01 01:47:23;;;;;;;4.78;0.65;;;;;;;10.48;100.00;99032.72;5055045;28;20654;-50
2022/11/01 01:49:54;;;;;;;3.05;0.32;;;;;;;10.54;100.00;99070.75;5053931;28;20108;-53
2022/11/01 01:52:20;;;;;;;4.55;1.98;;;;;;;10.61;100.00;99084.72;5056565;28;20470;-54
2022/11/01 01:54:47;;;;;;;6.68;1.95;;;;;;;10.67;100.00;99112.16;5059339;28;20067;-48
2022/11/01 01:57:13;;;;;;;3.08;0.10;;;;;;;10.72;100.00;99130.84;5061934;28;20450;-50
2022/11/01 01:59:39;;;;;;;0.03;0.00;;;;;;;10.82;100.00;99157.66;5054286;28;20107;-59
2022/11/01 02:02:05;;;;;;;1.80;0.20;;;;;;;10.88;100.00;99169.19;5053038;28;20307;-55
2022/11/01 02:04:40;;;;;;;0.80;0.00;;;;;;;10.95;100.00;99190.31;5063980;28;20040;-58
2022/11/01 02:07:06;;;;;;;0.68;0.00;;;;;;;10.94;100.00;99212.56;5058068;28;20090;-54
2022/11/01 02:09:32;;;;;;;1.75;0.70;;;;;;;10.93;100.00;99217.06;5057777;28;20028;-51
2022/11/01 02:11:57;;;;;;;0.00;0.00;;;;;;;10.93;100.00;99222.38;5056377;28;20559;-58
2022/11/01 02:14:24;;;;;;;0.43;0.00;;;;;;;10.89;100.00;99245.88;5057257;28;21284;-47
2022/11/01 02:17:07;;;;;;;1.40;0.00;;;;;;;10.86;100.00;99246.28;5058691;28;20094;-48
2022/11/01 02:19:54;;;;;;;1.75;0.10;;;;;;;10.82;100.00;99255.75;5056953;28;20039;-50
2022/11/01 02:22:58;;;;;;;2.17;0.57;;;;;;;10.78;100.00;99262.50;5056663;28;20040;-47
2022/11/01 02:25:42;;;;;;;0.13;0.00;;;;;;;10.66;100.00;99254.50;5055006;28;20453;-50
2022/11/01 02:28:19;;;;;;;1.83;0.00;;;;;;;10.60;100.00;99255.38;5058936;28;20123;-52
2022/11/01 02:31:02;;;;;;;0.70;0.00;;;;;;;10.61;100.00;99264.97;5056161;28;20025;-48
2022/11/01 02:33:36;;;;;;;0.80;0.17;;;;;;;10.62;100.00;99263.13;5061092;28;20404;-51
2022/11/01 02:36:10;;;;;;;0.30;0.00;;;;;;;10.63;100.00;99272.69;5057346;28;20032;-58
2022/11/01 02:38:47;;;;;;;0.77;0.08;;;;;;;10.67;100.00;99277.31;5065763;28;20041;-49
2022/11/01 02:41:17;;;;;;;1.02;0.35;;;;;;;10.66;100.00;99281.03;5059086;28;20039;-51
2022/11/01 02:43:59;;;;;;;0.73;0.00;;;;;;;10.66;100.00;99293.44;5064396;28;20428;-50
2022/11/01 02:49:14;;;;;;;0.00;0.00;;;;;;;10.72;100.00;99307.69;5059749;28;20044;-47
2022/11/01 02:51:42;;;;;;;0.10;0.00;;;;;;;10.67;100.00;99308.34;5067160;28;20075;-52
2022/11/01 02:54:16;;;;;;;1.45;0.00;;;;;;;10.63;100.00;99329.16;5063045;28;20033;-56
2022/11/01 02:56:42;;;;;;;0.25;0.10;;;;;;;10.60;100.00;99337.53;5060216;28;20035;-49
2022/11/01 02:59:21;;;;;;;0.10;0.00;;;;;;;10.56;100.00;99339.03;5062246;28;20154;-52
2022/11/01 03:01:53;;;;;;;0.95;0.00;;;;;;;10.53;100.00;99360.63;5059138;28;20031;-47
2022/11/01 03:04:19;;;;;;;0.32;0.00;;;;;;;10.38;100.00;99394.63;5058527;28;20034;-56
2022/11/01 03:06:54;;;;;;;0.55;0.00;;;;;;;10.34;100.00;99390.78;5058026;28;20021;-50
2022/11/01 03:09:20;;;;;;;1.45;0.00;;;;;;;10.26;100.00;99435.03;5059113;28;20029;-52
2022/11/01 03:11:58;;;;;;;2.10;0.10;;;;;;;10.20;100.00;99441.19;5062437;28;20613;-47
2022/11/01 03:15:01;;;;;;;5.22;0.88;;;;;;;10.13;100.00;99426.38;5059904;28;20029;-48
2022/11/01 03:17:26;;;;;;;1.05;0.00;;;;;;;10.01;100.00;99450.84;5027485;28;20049;-51
2022/11/01 03:20:04;;;;;;;2.85;0.22;;;;;;;9.98;100.00;99483.06;5053178;28;20040;-51
2022/11/01 03:22:53;;;;;;;1.35;0.00;;;;;;;9.94;100.00;99481.03;5057014;28;20036;-49
2022/11/01 03:25:39;;;;;;;0.52;0.00;;;;;;;9.93;100.00;99497.97;5051732;28;20037;-49
2022/11/01 03:28:25;;;;;;;5.78;1.52;;;;;;;9.88;100.00;99500.44;5053428;28;20049;-51
2022/11/01 03:30:56;;;;;;;4.28;0.60;;;;;;;9.80;100.00;99498.84;5064673;28;20032;-48
2022/11/01 03:33:24;;;;;;;2.70;0.30;;;;;;;9.73;100.00;99521.88;5038071;28;20521;-51
2022/11/01 03:35:53;;;;;;;6.90;0.95;;;;;;;9.75;100.00;99522.47;5060078;28;20032;-53
2022/11/01 03:38:24;;;;;;;3.67;1.30;;;;;;;9.70;100.00;99528.38;5061951;28;20441;-51
2022/11/01 03:40:55;;;;;;;7.65;0.70;;;;;;;9.72;100.00;99536.13;5056567;28;20116;-46
2022/11/01 03:43:24;;;;;;;10.45;1.38;;;;;;;9.68;100.00;99538.41;5064718;28;20442;-55
2022/11/01 03:45:50;;;;;;;11.85;0.85;;;;;;;9.59;100.00;99550.22;5059910;28;20029;-48
2022/11/01 03:48:15;;;;;;;11.02;0.98;;;;;;;9.59;100.00;99551.00;5065803;28;20033;-51
2022/11/01 03:50:46;;;;;;;13.38;1.52;;;;;;;9.62;100.00;99570.97;5056110;28;20036;-52
2022/11/01 03:53:11;;;;;;;13.27;2.95;;;;;;;9.60;100.00;99567.69;5035319;28;20035;-50
2022/11/01 03:55:36;;;;;;;12.23;0.98;;;;;;;9.55;100.00;99576.28;5056925;28;20037;-50
2022/11/01 03:58:02;;;;;;;7.90;1.00;;;;;;;9.55;100.00;99578.09;5063989;28;20056;-48
2022/11/01 04:00:33;;;;;;;6.07;0.88;;;;;;;9.55;100.00;99596.63;5051976;28;20057;-51
2022/11/01 04:02:59;;;;;;;15.07;1.35;;;;;;;9.53;100.00;99585.44;5064317;28;20084;-50
2022/11/01 04:05:26;;;;;;;11.43;1.20;;;;;;;9.49;100.00;99608.03;5051943;28;20025;-51
2022/11/01 04:07:52;;;;;;;9.80;2.10;;;;;;;9.51;100.00;99609.47;5062605;28;20040;-50
2022/11/01 04:10:19;;;;;;;13.38;2.53;;;;;;;9.50;100.00;99615.78;5060639;28;20024;-44
2022/11/01 04:12:46;;;;;;;7.35;0.63;;;;;;;9.52;100.00;99634.09;5061538;28;20031;-47
2022/11/01 04:21:06;;;;;;;9.15;1.85;;;;;;;9.59;100.00;99638.34;5053066;28;20035;-51
2022/11/01 04:23:33;;;;;;;14.52;2.60;;;;;;;9.58;100.00;99665.03;5051024;28;20040;-50
2022/11/01 04:25:58;;;;;;;10.05;1.92;;;;;;;9.61;100.00;99648.75;5052526;28;20037;-50
2022/11/01 04:28:24;;;;;;;7.28;2.70;;;;;;;9.61;100.00;99661.97;5055624;28;20132;-47
2022/11/01 04:30:49;;;;;;;16.23;2.47;;;;;;;9.63;100.00;99659.13;5058309;28;20060;-47
2022/11/01 04:33:14;;;;;;;3.92;0.93;;;;;;;9.67;100.00;99677.03;5060202;28;20361;-48
2022/11/01 04:35:40;;;;;;;8.25;1.38;;;;;;;9.65;100.00;99681.72;5060527;28;20075;-48
2022/11/01 04:38:05;;;;;;;12.10;1.20;;;;;;;9.73;100.00;99685.97;5059521;28;20118;-46
2022/11/01 04:40:33;;;;;;;3.50;1.00;;;;;;;9.71;100.00;99680.09;5054219;28;20036;-46
2022/11/01 04:42:58;;;;;;;8.52;2.70;;;;;;;9.66;100.00;99693.94;5066662;28;20373;-47
2022/11/01 04:45:24;;;;;;;7.00;1.02;;;;;;;9.68;100.00;99704.31;5064743;28;20033;-49
2022/11/01 04:48:07;;;;;;;7.40;0.68;;;;;;;9.69;100.00;99705.97;5050613;28;20249;-50
2022/11/01 04:50:34;;;;;;;6.45;1.50;;;;;;;9.63;100.00;99728.78;5064377;28;20106;-48
2022/11/01 04:53:00;;;;;;;8.90;1.13;;;;;;;9.65;100.00;99734.66;5065394;28;20094;-50
2022/11/01 04:55:26;;;;;;;7.95;2.05;;;;;;;9.65;100.00;99741.78;5051644;28;20501;-49
2022/11/01 04:57:52;;;;;;;20.83;2.22;;;;;;;9.70;100.00;99774.56;5060715;28;20495;-47
2022/11/01 05:00:18;;;;;;;5.80;1.17;;;;;;;9.81;100.00;99767.88;5062022;28;20060;-48
2022/11/01 05:02:43;;;;;;;10.48;2.20;;;;;;;9.85;100.00;99762.97;5052256;28;20032;-47
2022/11/01 05:05:10;;;;;;;13.38;1.83;;;;;;;9.87;100.00;99758.31;5062259;28;20107;-48
2022/11/01 05:07:35;;;;;;;16.55;2.50;;;;;;;9.88;100.00;99770.50;5062531;28;20090;-48
2022/11/01 05:10:01;;;;;;;11.40;2.55;;;;;;;9.81;100.00;99763.38;5059924;28;20037;-50
2022/11/01 05:12:27;;;;;;;13.77;1.98;;;;;;;9.76;100.00;99778.25;5059792;28;20041;-49
2022/11/01 05:14:52;;;;;;;6.38;1.17;;;;;;;9.78;100.00;99777.03;5064638;28;20470;-51
2022/11/01 05:17:18;;;;;;;11.05;1.02;;;;;;;9.79;100.00;99778.66;5071165;28;20103;-50
2022/11/01 05:19:43;;;;;;;13.35;2.25;;;;;;;9.83;100.00;99779.06;5062850;28;20025;-49
2022/11/01 05:22:08;;;;;;;9.32;0.73;;;;;;;9.91;100.00;99776.19;5059958;28;20052;-50
2022/11/01 05:24:34;;;;;;;8.73;3.00;;;;;;;9.85;100.00;99765.63;5065131;28;20033;-49
2022/11/01 05:26:59;;;;;;;5.15;0.65;;;;;;;9.71;100.00;99773.56;5050928;28;20757;-47
2022/11/01 05:29:25;;;;;;;8.35;0.90;;;;;;;9.69;100.00;99783.53;5058774;28;20038;-49
2022/11/01 05:31:51;;;;;;;18.17;2.88;;;;;;;9.61;100.00;99776.59;5060545;28;20103;-50
2022/11/01 05:34:16;;;;;;;6.40;1.00;;;;;;;9.50;100.00;99784.31;5057030;28;20116;-51
2022/11/01 05:36:42;;;;;;;6.93;0.43;;;;;;;9.43;100.00;99794.91;5049697;28;20030;-49
2022/11/01 05:39:07;;;;;;;5.30;0.65;;;;;;;9.50;100.00;99805.47;5039412;28;20110;-47
2022/11/01 05:41:32;;;;;;;5.45;1.08;;;;;;;9.50;100.00;99803.66;5062234;28;20028;-52
2022/11/01 05:43:58;;;;;;;5.57;0.45;;;;;;;9.51;100.00;99807.13;5062640;28;20192;-51
2022/11/01 05:46:23;;;;;;;4.75;0.63;;;;;;;9.49;100.00;99803.84;5058226;28;20056;-49
2022/11/01 05:48:49;;;;;;;5.10;0.50;;;;;;;9.47;100.00;99819.13;5058235;28;20040;-49
2022/11/01 05:51:14;;;;;;;6.00;0.52;;;;;;;9.45;100.00;99816.69;5062497;28;20028;-51
2022/11/01 05:53:39;;;;;;;6.93;0.82;;;;;;;9.50;100.00;99824.00;5063265;28;20028;-51
2022/11/01 05:56:05;;;;;;;12.07;1.58;;;;;;;9.52;100.00;99824.63;5055938;28;20043;-49
2022/11/01 05:58:30;;;;;;;4.15;1.20;;;;;;;9.54;100.00;99823.41;5055024;28;21009;-52
2022/11/01 06:00:57;;;;;;;3.63;0.93;;;;;;;9.59;100.00;99836.84;5061983;28;20369;-48
2022/11/01 06:03:23;;;;;;;11.93;1.60;;;;;;;9.65;100.00;99829.13;5060260;28;20082;-50
2022/11/01 06:05:48;;;;;;;15.32;2.50;;;;;;;9.63;100.00;99829.34;5028511;28;20867;-49
2022/11/01 06:08:13;;;;;;;8.23;1.17;;;;;;;9.61;100.00;99823.44;5058150;28;20032;-52
2022/11/01 06:10:39;;;;;;;8.68;1.42;;;;;;;9.56;100.00;99824.03;5059077;28;20455;-50
2022/11/01 06:13:04;;;;;;;7.45;0.80;;;;;;;9.51;100.00;99828.28;5055493;28;20037;-48
2022/11/01 06:15:29;;;;;;;12.15;2.30;;;;;;;9.52;100.00;99825.44;5060242;28;20025;-47
2022/11/01 06:17:57;;;;;;;9.93;1.75;;;;;;;9.52;100.00;99824.63;5060137;28;20041;-48
2022/11/01 06:20:23;;;;;;;10.07;1.13;;;;;;;9.46;100.00;99818.31;5054509;28;20029;-50
2022/11/01 06:22:48;;;;;;;8.00;1.40;;;;;;;9.40;100.00;99827.06;5061281;28;20029;-49
2022/11/01 06:25:14;;;;;;;5.32;0.95;;;;;;;9.34;100.00;99806.66;5061666;28;20067;-48
2022/11/01 06:27:39;;;;;;;6.15;2.30;;;;;;;9.38;100.00;99824.59;5056059;28;20150;-51
2022/11/01 06:30:05;;;;;;;8.52;1.58;;;;;;;9.46;100.00;99818.31;5057073;28;20032;-53
2022/11/01 06:32:30;;;;;;;4.43;1.38;;;;;;;9.54;100.00;99827.88;5057026;28;20029;-49
2022/11/01 06:34:56;;;;;;;7.20;1.15;;;;;;;9.60;100.00;99825.28;5057145;28;20480;-51
2022/11/01 06:37:21;;;;;;;9.27;0.88;;;;;;;9.67;100.00;99830.56;5055329;28;20088;-52
2022/11/01 06:39:46;;;;;;;12.18;1.33;;;;;;;9.85;100.00;99827.34;5063955;28;20154;-47
2022/11/01 06:42:12;;;;;;;10.70;2.08;;;;;;;9.95;100.00;99829.59;5058568;28;20020;-48
2022/11/01 06:44:37;;;;;;;17.30;2.65;;;;;;;10.06;100.00;99836.91;5056871;28;20040;-50
2022/11/01 06:47:02;;;;;;;11.75;3.38;;;;;;;10.11;100.00;99839.78;5063080;28;20031;-51
2022/11/01 06:49:29;;;;;;;7.03;1.65;;;;;;;10.11;100.00;99844.25;5043509;28;20054;-49
2022/11/01 06:51:54;;;;;;;5.53;1.42;;;;;;;10.22;100.00;99846.28;5056010;28;20031;-50
2022/11/01 06:54:20;;;;;;;13.88;3.30;;;;;;;10.30;100.00;99843.50;5047901;28;20028;-52
2022/11/01 06:56:46;;;;;;;15.80;2.50;;;;;;;10.37;100.00;99851.41;5062905;28;20031;-50
2022/11/01 06:59:11;;;;;;;12.82;1.50;;;;;;;10.40;100.00;99854.50;5056416;28;20051;-48
2022/11/01 07:01:37;;;;;;;11.95;2.45;;;;;;;10.47;100.00;99859.78;5059958;28;20742;-54
2022/11/01 07:04:02;;;;;;;12.38;1.65;;;;;;;10.57;100.00;99862.81;5057482;28;20021;-51
2022/11/01 07:06:29;;;;;;;13.18;2.75;;;;;;;10.66;100.00;99860.75;5055059;28;20021;-51
2022/11/01 07:08:56;;;;;;;5.63;1.00;;;;;;;10.73;100.00;99850.97;5056462;28;20426;-47
2022/11/01 07:11:22;;;;;;;17.42;1.38;;;;;;;10.86;100.00;99858.06;5053605;28;20465;-56
2022/11/01 07:13:47;;;;;;;13.82;1.52;;;;;;;10.97;100.00;99856.63;5055052;28;20033;-58
2022/11/01 07:16:13;;;;;;;8.20;2.03;;;;;;;11.07;100.00;99870.25;5056513;28;20056;-55
2022/11/01 07:18:38;;;;;;;8.70;2.40;;;;;;;11.07;100.00;99886.97;5050426;28;20063;-58
2022/11/01 07:21:04;;;;;;;16.17;1.25;;;;;;;11.09;100.00;99886.78;5051319;28;20032;-58
2022/11/01 07:23:29;;;;;;;8.68;1.85;;;;;;;11.11;100.00;99888.22;5057067;28;20158;-58
2022/11/01 07:25:55;;;;;;;10.52;1.88;;;;;;;11.10;100.00;99899.03;5053759;28;20131;-55
2022/11/01 07:28:21;;;;;;;21.90;3.70;;;;;;;11.17;100.00;99902.47;5049969;28;20611;-54
2022/11/01 07:30:48;;;;;;;9.02;3.17;;;;;;;11.14;100.00;99893.09;5054506;28;20036;-55
2022/11/01 07:33:13;;;;;;;10.18;1.95;;;;;;;11.18;100.00;99895.31;5055254;28;20209;-55
2022/11/01 07:35:38;;;;;;;14.15;3.50;;;;;;;11.15;100.00;99904.50;5038752;28;20211;-52
2022/11/01 07:38:04;;;;;;;11.90;2.08;;;;;;;11.19;100.00;99891.66;5059182;28;20059;-56
2022/11/01 07:40:29;;;;;;;11.77;2.92;;;;;;;11.20;100.00;99896.75;5039231;28;20059;-49
2022/11/01 07:42:58;;;;;;;9.82;1.20;;;;;;;11.24;100.00;99903.28;5054455;28;20024;-51
2022/11/01 07:45:25;;;;;;;13.93;3.35;;;;;;;11.25;100.00;99912.03;5048131;28;20020;-50
2022/11/01 07:47:51;;;;;;;13.13;3.55;;;;;;;11.30;100.00;99917.53;5054698;28;20037;-50
2022/11/01 07:50:16;;;;;;;12.85;1.42;;;;;;;11.29;100.00;99916.72;5056827;28;20043;-49
2022/11/01 07:52:42;;;;;;;12.27;2.35;;;;;;;11.33;100.00;99914.47;5050973;28;20155;-49
2022/11/01 07:55:08;;;;;;;6.68;1.88;;;;;;;11.35;100.00;99925.69;5051289;28;20032;-50
2022/11/01 07:57:38;;;;;;;21.67;2.05;;;;;;;11.41;100.00;99919.56;5050947;28;20029;-53
2022/11/01 08:00:04;;;;;;;13.00;3.10;;;;;;;11.51;100.00;99935.03;5051434;28;20036;-54
2022/11/01 08:02:30;;;;;;;7.55;1.08;;;;;;;11.61;100.00;99916.81;5055572;28;20028;-48
2022/11/01 08:04:55;;;;;;;11.82;2.08;;;;;;;11.69;100.00;99915.75;5054834;28;20405;-49
2022/11/01 08:07:20;;;;;;;7.63;2.10;;;;;;;11.69;100.00;99915.75;5043873;28;20033;-57
2022/11/01 08:09:46;;;;;;;7.35;1.50;;;;;;;11.70;100.00;99928.03;5056162;28;20068;-54
2022/11/01 08:12:12;;;;;;;11.43;2.30;;;;;;;11.69;100.00;99937.00;5052859;28;20036;-56
2022/11/01 08:14:37;;;;;;;8.60;1.00;;;;;;;11.62;100.00;99930.91;5050143;28;20202;-47
2022/11/01 08:17:02;;;;;;;6.53;0.85;;;;;;;11.54;100.00;99924.00;5042390;28;20140;-52
2022/11/01 08:19:28;;;;;;;7.65;1.73;;;;;;;11.51;100.00;99927.91;5053721;28;20028;-52
2022/11/01 08:21:56;;;;;;;5.85;1.48;;;;;;;11.55;100.00;99926.44;5050184;28;20536;-55
2022/11/01 08:24:22;;;;;;;10.85;1.27;;;;;;;11.54;100.00;99930.13;5050057;28;20028;-51
2022/11/01 08:26:47;;;;;;;3.33;1.00;;;;;;;11.53;100.00;99917.84;5032526;28;20040;-55
2022/11/01 08:29:12;;;;;;;5.45;2.08;;;;;;;11.54;100.00;99916.03;5063553;28;20024;-52
2022/11/01 08:31:41;;;;;;;7.82;1.67;;;;;;;11.55;100.00;99921.13;5050807;28;20123;-52
2022/11/01 08:34:07;;;;;;;11.43;1.60;;;;;;;11.53;100.00;99923.16;5044709;28;20032;-52
2022/11/01 08:36:33;;;;;;;7.68;1.95;;;;;;;11.54;100.00;99930.13;5049024;28;20036;-54
2022/11/01 08:38:58;;;;;;;10.73;1.75;;;;;;;11.58;100.00;99923.34;5057317;28;20394;-50
2022/11/01 08:41:24;;;;;;;5.72;1.50;;;;;;;11.65;100.00;99910.06;5065091;28;20032;-52
2022/11/01 08:43:49;;;;;;;6.72;1.33;;;;;;;11.66;100.00;99905.56;5059579;28;20037;-51
2022/11/01 08:46:15;;;;;;;5.22;0.60;;;;;;;11.66;100.00;99887.78;5059201;28;20481;-55
2022/11/01 08:48:40;;;;;;;10.02;1.42;;;;;;;11.64;100.00;99897.81;5055555;28;20036;-52
2022/11/01 08:51:06;;;;;;;8.10;1.88;;;;;;;11.65;100.00;99912.72;5068372;28;20106;-53
2022/11/01 08:53:31;;;;;;;7.82;2.20;;;;;;;11.67;100.00;99917.78;5054884;28;20060;-56
2022/11/01 08:55:57;;;;;;;14.13;3.85;;;;;;;11.67;100.00;99976.22;5052308;28;20025;-57
2022/11/01 08:58:22;;;;;;;8.15;0.75;;;;;;;11.64;100.00;99987.25;5052062;28;20386;-50
2022/11/01 09:00:47;;;;;;;6.70;1.70;;;;;;;11.33;100.00;99922.44;5047945;28;20035;-49
2022/11/01 09:03:16;;;;;;;3.65;0.30;;;;;;;11.23;100.00;99928.19;5061972;28;20020;-53
2022/11/01 09:05:41;;;;;;;1.48;0.20;;;;;;;11.11;100.00;99933.31;5063815;28;20025;-49
2022/11/01 09:08:07;;;;;;;1.90;0.10;;;;;;;11.02;100.00;99942.53;5061092;28;20440;-55
2022/11/01 09:10:32;;;;;;;5.47;0.20;;;;;;;10.98;100.00;99945.81;5067767;28;20074;-47
2022/11/01 09:12:59;;;;;;;4.05;0.08;;;;;;;10.94;100.00;99942.72;5053633;28;20547;-50
2022/11/01 09:15:25;;;;;;;1.77;0.15;;;;;;;10.92;100.00;99942.16;5060547;28;20025;-55
2022/11/01 09:17:51;;;;;;;0.52;0.30;;;;;;;10.90;100.00;99957.44;5056163;28;20754;-51
2022/11/01 09:20:17;;;;;;;2.38;0.00;;;;;;;10.86;100.00;99967.63;5062144;28;20042;-53
2022/11/01 09:22:42;;;;;;;0.20;0.20;;;;;;;10.87;100.00;99971.13;5062604;28;20024;-53
2022/11/01 09:25:08;;;;;;;0.98;0.10;;;;;;;10.88;100.00;99965.59;5055931;28;20029;-50
2022/11/01 09:27:33;;;;;;;0.63;0.47;;;;;;;10.90;100.00;99965.41;5057344;28;20498;-53
2022/11/01 09:29:59;;;;;;;0.20;0.00;;;;;;;10.94;100.00;99974.56;5059619;28;20032;-52
2022/11/01 09:32:27;;;;;;;1.90;0.10;;;;;;;11.06;100.00;99972.09;5059010;28;20149;-54
2022/11/01 09:34:53;;;;;;;0.65;0.00;;;;;;;11.14;100.00;99987.81;5065380;28;20033;-50
2022/11/01 09:37:19;;;;;;;4.32;1.58;;;;;;;11.24;100.00;99985.53;5057422;28;20025;-51
2022/11/01 09:39:44;;;;;;;5.38;0.70;;;;;;;11.32;100.00;99989.81;5055927;28;20032;-53
2022/11/01 09:42:35;;;;;;;2.55;0.20;;;;;;;11.47;100.00;99998.34;5060277;28;20028;-53
2022/11/01 09:45:16;;;;;;;1.63;0.52;;;;;;;11.57;100.00;99998.72;5067059;28;20051;-51
2022/11/01 09:47:45;;;;;;;10.90;1.40;;;;;;;11.64;100.00;99998.72;5059868;28;20067;-50
2022/11/01 09:50:13;;;;;;;3.65;0.90;;;;;;;11.75;100.00;100018.50;5061418;28;20037;-48
2022/11/01 09:52:39;;;;;;;18.08;2.42;;;;;;;11.83;100.00;100004.97;5068355;28;20028;-51
2022/11/01 09:55:13;;;;;;;5.10;0.75;;;;;;;11.88;100.00;100025.63;5064394;28;20039;-48
2022/11/01 09:57:45;;;;;;;7.55;1.48;;;;;;;11.94;100.00;100020.28;5056876;28;20054;-49
2022/11/01 10:00:20;;;;;;;6.85;1.25;;;;;;;11.96;100.00;100009.44;5064949;28;20063;-49
2022/11/01 10:03:18;;;;;;;3.13;0.93;;;;;;;11.93;100.00;100015.19;5069725;28;20032;-53
2022/11/01 10:06:10;;;;;;;7.50;3.03;;;;;;;11.85;100.00;100018.88;5058539;28;20122;-50
2022/11/01 10:08:42;;;;;;;5.28;0.93;;;;;;;11.82;100.00;100015.81;5055584;28;20489;-50
2022/11/01 10:11:45;;;;;;;7.25;0.85;;;;;;;12.03;100.00;100012.06;5063197;28;20039;-51
2022/11/01 10:14:13;;;;;;;11.35;1.23;;;;;;;12.25;100.00;100018.69;5058371;28;20039;-48
2022/11/01 10:16:40;;;;;;;6.38;1.98;;;;;;;12.40;100.00;100018.41;5060769;28;20029;-51
2022/11/01 10:19:17;;;;;;;7.70;1.35;;;;;;;12.54;100.00;100025.25;5060263;28;20367;-50
2022/11/01 10:21:53;;;;;;;5.65;0.65;;;;;;;12.61;100.00;100009.28;5057974;28;20484;-48
2022/11/01 10:24:33;;;;;;;7.15;1.30;;;;;;;12.74;100.00;100008.34;5066674;28;20127;-53
2022/11/01 10:27:11;;;;;;;9.55;1.80;;;;;;;12.89;100.00;100011.50;5068879;28;20048;-49
2022/11/01 10:29:54;;;;;;;5.28;1.20;;;;;;;12.94;100.00;100010.88;5065898;28;20470;-49
2022/11/01 10:32:38;;;;;;;14.10;0.82;;;;;;;12.96;100.00;99993.66;5054594;28;20017;-52
2022/11/01 10:35:11;;;;;;;6.07;1.15;;;;;;;13.06;100.00;99988.66;5067743;28;20051;-51
2022/11/01 10:37:43;;;;;;;6.90;1.10;;;;;;;13.28;100.00;99978.41;5063757;28;20096;-51
2022/11/01 10:40:23;;;;;;;4.57;0.73;;;;;;;13.26;100.00;99979.63;5060644;28;20039;-50
2022/11/01 10:42:48;;;;;;;7.38;0.80;;;;;;;13.25;100.00;99962.06;5057077;28;20041;-48
2022/11/01 10:45:19;;;;;;;4.22;0.30;;;;;;;13.13;100.00;99974.44;5061728;28;20066;-48
2022/11/01 10:47:47;;;;;;;8.88;0.65;;;;;;;13.04;100.00;99952.66;5057879;28;20028;-51
2022/11/01 10:50:15;;;;;;;2.30;0.60;;;;;;;13.01;100.00;99945.91;5040428;28;20064;-53
2022/11/01 10:52:49;;;;;;;6.43;0.30;;;;;;;13.02;100.00;99952.03;5061159;28;20028;-49
2022/11/01 10:55:21;;;;;;;2.30;0.68;;;;;;;13.08;100.00;99948.50;5061104;28;20031;-51
2022/11/01 10:57:54;;;;;;;5.13;1.85;;;;;;;13.15;100.00;99951.91;5059950;28;20424;-57
2022/11/01 11:00:20;;;;;;;5.82;0.57;;;;;;;13.15;100.00;99946.59;5067117;28;20595;-51
2022/11/01 11:02:57;;;;;;;11.07;0.77;;;;;;;13.19;100.00;99939.78;5068269;28;20036;-47
2022/11/01 11:05:26;;;;;;;6.43;1.80;;;;;;;13.28;100.00;99930.50;5062071;28;20054;-50
2022/11/01 11:07:51;;;;;;;6.07;1.17;;;;;;;13.49;100.00;99915.09;5063561;28;20410;-53
2022/11/01 11:10:23;;;;;;;3.35;0.70;;;;;;;13.64;100.00;99910.19;5061444;28;20039;-54
2022/11/01 11:12:52;;;;;;;4.90;0.52;;;;;;;13.70;100.00;99903.97;5067482;28;20381;-49
2022/11/01 11:15:30;;;;;;;1.63;0.25;;;;;;;13.71;100.00;99894.13;5059932;28;20024;-52
2022/11/01 11:17:58;;;;;;;4.68;1.10;;;;;;;13.66;100.00;99909.97;5057729;28;20036;-49
2022/11/01 11:20:25;;;;;;;5.25;0.35;;;;;;;13.71;100.00;99918.91;5063304;28;20039;-49
2022/11/01 11:22:51;;;;;;;12.18;1.02;;;;;;;13.73;100.00;99900.88;5062951;28;20033;-52
2022/11/01 11:25:20;;;;;;;7.13;1.45;;;;;;;13.83;100.00;99904.81;5064486;28;20024;-53
2022/11/01 11:27:48;;;;;;;8.00;2.85;;;;;;;13.76;100.00;99910.25;5060656;28;20056;-46
2022/11/01 11:30:27;;;;;;;1.85;1.23;;;;;;;13.64;100.00;99910.19;5060203;28;20656;-48
2022/11/01 11:32:52;;;;;;;2.25;0.55;;;;;;;13.62;100.00;99920.25;5067175;28;20025;-48
2022/11/01 11:35:23;;;;;;;4.57;1.17;;;;;;;13.61;100.00;99931.16;5061067;28;20035;-50
2022/11/01 11:37:58;;;;;;;4.60;1.30;;;;;;;13.68;100.00;99895.41;5059261;28;20021;-52
2022/11/01 11:40:25;;;;;;;6.40;0.70;;;;;;;13.75;100.00;99885.44;5062792;28;20021;-52
2022/11/01 11:43:12;;;;;;;3.20;0.60;;;;;;;13.82;100.00;99871.22;5043558;28;20033;-48